Montecarlo, Argentina
Current Conditions -  °F | °C
As of 6:00 PM on Saturday 25 Oct 2014 (Local Time) from SARI Reporting Station
Few Clouds Few Clouds  
Wind Chill: 88°   Ceiling: Unl
Heat Index: 91°   Visibility: 6mi
Dew Point: 68°   Wind: 7mph
Humidity: 52%   Direction: 20°NNE
Pressure: 29.83"   Gusts: NA
Location:  26.62°S, 54.75°W
Report Text: SARI 252100Z 02006KT 9999 FEW045 31/20 Q1010
Loading
Personal Weather Stations






























Interactive Weather Map
Tropical Storm Tracking
New forecast layout! Learn more

10-Day Weather Forecast

Advertisements
Track Severe Weather on mobile